createdAt,value
2023-03-28T00:00:17.932Z,7.53
2023-03-28T00:03:07.052Z,7.63
2023-03-28T00:05:37.427Z,7.47
2023-03-28T00:08:08.095Z,7.72
2023-03-28T00:10:37.147Z,7.50
2023-03-28T00:13:06.052Z,8.70
2023-03-28T00:15:35.483Z,8.50
2023-03-28T00:18:05.670Z,7.93
2023-03-28T00:20:39.157Z,8.40
2023-03-28T00:23:10.085Z,7.85
2023-03-28T00:25:41.802Z,8.02
2023-03-28T00:28:11.370Z,8.70
2023-03-28T00:30:40.495Z,9.20
2023-03-28T00:33:09.229Z,7.88
2023-03-28T00:35:38.405Z,9.20
2023-03-28T00:38:08.554Z,8.00
2023-03-28T00:40:38.894Z,9.27
2023-03-28T00:43:07.904Z,8.60
2023-03-28T00:45:36.993Z,8.57
2023-03-28T00:52:43.929Z,9.30
2023-03-28T00:55:22.045Z,9.03
2023-03-28T00:57:53.135Z,9.27
2023-03-28T01:00:23.011Z,9.67
2023-03-28T01:02:58.462Z,10.03
2023-03-28T01:05:31.145Z,9.18
2023-03-28T01:08:08.705Z,10.50
2023-03-28T01:10:39.009Z,10.17
2023-03-28T01:13:11.629Z,10.57
2023-03-28T01:15:41.228Z,11.50
2023-03-28T01:18:13.474Z,11.85
2023-03-28T01:21:37.718Z,11.07
2023-03-28T01:24:51.505Z,10.93
2023-03-28T01:27:33.741Z,11.80
2023-03-28T01:30:57.480Z,12.10
2023-03-28T01:34:24.909Z,13.47
2023-03-28T01:37:15.743Z,12.70
2023-03-28T01:40:15.274Z,12.00
2023-03-28T01:43:04.059Z,11.90
2023-03-28T01:45:49.223Z,11.97
2023-03-28T01:48:31.495Z,11.67
2023-03-28T01:51:14.633Z,10.10
2023-03-28T01:53:52.361Z,9.73
2023-03-28T01:56:31.125Z,9.93
2023-03-28T01:59:17.749Z,10.07
2023-03-28T02:02:28.569Z,9.33
2023-03-28T02:05:07.463Z,10.23
2023-03-28T02:07:45.385Z,9.63
2023-03-28T02:10:22.744Z,10.00
2023-03-28T02:13:05.344Z,9.07
2023-03-28T02:15:55.496Z,9.83
2023-03-28T02:18:35.022Z,9.23
2023-03-28T02:26:33.570Z,10.17
2023-03-28T02:29:21.061Z,9.67
2023-03-28T02:31:59.707Z,10.27
2023-03-28T02:34:28.755Z,11.10
2023-03-28T02:37:07.560Z,11.87
2023-03-28T02:39:53.269Z,11.60
2023-03-28T02:43:19.353Z,10.77
2023-03-28T02:46:13.693Z,10.82
2023-03-28T02:49:21.777Z,10.10
2023-03-28T02:52:04.609Z,10.53
2023-03-28T02:54:44.189Z,11.60
2023-03-28T02:57:44.230Z,10.83
2023-03-28T03:00:20.571Z,10.47
2023-03-28T03:02:52.493Z,9.37
2023-03-28T03:05:22.868Z,10.63
2023-03-28T03:07:52.317Z,10.07
2023-03-28T03:15:01.085Z,9.40
2023-03-28T03:17:49.844Z,9.50
2023-03-28T03:20:27.186Z,10.07
2023-03-28T03:22:56.728Z,9.27
2023-03-28T03:25:26.596Z,8.90
2023-03-28T03:28:16.351Z,9.63
2023-03-28T03:30:46.024Z,9.57
2023-03-28T03:33:34.486Z,9.30
2023-03-28T03:36:09.769Z,10.03
2023-03-28T03:38:38.644Z,9.00
2023-03-28T03:41:09.231Z,10.67
2023-03-28T03:43:38.444Z,11.77
2023-03-28T03:46:08.571Z,10.53
2023-03-28T03:53:19.275Z,10.00
2023-03-28T03:56:02.128Z,10.57
2023-03-28T04:03:26.941Z,9.27
2023-03-28T04:05:58.151Z,9.93
2023-03-28T04:08:28.976Z,8.23
2023-03-28T04:10:57.905Z,9.53
2023-03-28T04:13:27.504Z,9.07
2023-03-28T04:16:01.324Z,9.27
2023-03-28T04:18:50.936Z,8.60
2023-03-28T04:21:28.482Z,9.30
2023-03-28T04:24:01.952Z,8.17
2023-03-28T04:26:42.564Z,8.27
2023-03-28T04:29:14.480Z,8.33
2023-03-28T04:31:50.736Z,8.37
2023-03-28T04:34:29.788Z,8.83
2023-03-28T04:37:09.859Z,7.97
2023-03-28T04:39:49.627Z,7.93
2023-03-28T04:42:39.445Z,8.80
2023-03-28T04:45:31.391Z,8.77
2023-03-28T04:48:07.961Z,8.07
2023-03-28T04:50:37.018Z,8.67
2023-03-28T04:53:06.332Z,8.50
2023-03-28T04:55:37.866Z,7.50
2023-03-28T04:58:20.627Z,9.53
2023-03-28T05:00:50.600Z,14.73
2023-03-28T05:03:40.051Z,17.90
2023-03-28T05:06:09.614Z,21.13
2023-03-28T05:08:38.931Z,26.03
2023-03-28T05:11:09.481Z,22.50
2023-03-28T05:13:38.968Z,15.13
2023-03-28T05:16:20.584Z,10.10
2023-03-28T05:19:12.457Z,8.88
2023-03-28T05:22:01.857Z,8.77
2023-03-28T05:24:31.694Z,8.37
2023-03-28T05:27:02.169Z,9.30
2023-03-28T05:29:31.041Z,10.10
2023-03-28T05:32:00.179Z,10.00
2023-03-28T05:34:34.249Z,9.57
2023-03-28T05:37:04.885Z,9.70
2023-03-28T05:39:44.525Z,8.63
2023-03-28T05:42:16.241Z,8.90
2023-03-28T05:44:45.530Z,9.20
2023-03-28T05:47:55.726Z,9.43
2023-03-28T05:50:27.511Z,9.93
2023-03-28T05:53:07.541Z,10.18
2023-03-28T05:55:36.350Z,10.80
2023-03-28T05:58:25.558Z,10.90
2023-03-28T06:00:54.762Z,12.90
2023-03-28T06:03:28.114Z,13.02
2023-03-28T06:05:57.323Z,14.47
2023-03-28T06:08:29.441Z,13.18
2023-03-28T06:11:02.967Z,13.27
2023-03-28T06:13:40.817Z,12.43
2023-03-28T06:16:11.496Z,13.23
2023-03-28T06:18:40.713Z,13.07
2023-03-28T06:21:09.738Z,13.02
2023-03-28T06:23:39.550Z,12.45
2023-03-28T06:26:09.853Z,12.75
2023-03-28T06:28:44.530Z,12.00
2023-03-28T06:31:22.688Z,12.52
2023-03-28T06:33:52.176Z,11.93
2023-03-28T06:36:23.121Z,12.80
2023-03-28T06:38:53.655Z,12.38
2023-03-28T06:41:24.945Z,13.05
2023-03-28T06:43:55.463Z,12.57
2023-03-28T06:46:59.851Z,13.05
2023-03-28T06:49:29.253Z,12.48
2023-03-28T06:52:31.357Z,13.10
2023-03-28T06:55:02.398Z,13.55
2023-03-28T06:57:31.252Z,11.88
2023-03-28T07:04:50.358Z,13.35
2023-03-28T07:07:19.779Z,12.57
2023-03-28T07:09:51.950Z,13.13
2023-03-28T07:12:21.337Z,12.00
2023-03-28T07:14:50.744Z,11.82
2023-03-28T07:17:20.789Z,12.02
2023-03-28T07:19:53.652Z,11.45
2023-03-28T07:22:24.222Z,11.93
2023-03-28T07:24:53.364Z,11.35
2023-03-28T07:27:24.961Z,11.63
2023-03-28T07:34:28.839Z,10.73
2023-03-28T07:36:59.154Z,11.95
2023-03-28T07:39:47.889Z,12.02
2023-03-28T07:42:19.791Z,11.80
2023-03-28T07:44:48.834Z,11.18
2023-03-28T07:47:18.290Z,12.55
2023-03-28T07:49:47.805Z,10.00
2023-03-28T07:52:18.300Z,10.55
2023-03-28T07:54:47.576Z,10.32
2023-03-28T07:57:16.569Z,10.13
2023-03-28T07:59:57.633Z,9.52
2023-03-28T08:02:27.230Z,9.57
2023-03-28T08:04:56.455Z,9.63
2023-03-28T08:07:29.132Z,8.98
2023-03-28T08:09:59.024Z,9.40
2023-03-28T08:12:32.104Z,9.52
2023-03-28T08:15:01.445Z,9.10
2023-03-28T08:17:31.575Z,9.30
2023-03-28T08:20:00.922Z,10.07
2023-03-28T08:22:31.608Z,9.10
2023-03-28T08:25:20.539Z,7.93
2023-03-28T08:27:50.118Z,8.40
2023-03-28T08:30:19.278Z,8.07
2023-03-28T08:32:57.673Z,7.57
2023-03-28T08:35:27.195Z,6.50
2023-03-28T08:38:01.465Z,7.03
2023-03-28T08:40:31.842Z,13.00
2023-03-28T08:43:40.365Z,12.73
2023-03-28T08:46:17.084Z,5.32
2023-03-28T08:48:48.518Z,5.70
2023-03-28T08:51:27.127Z,5.63
2023-03-28T08:54:12.728Z,6.00
2023-03-28T08:56:48.267Z,6.03
2023-03-28T09:03:50.092Z,5.32
2023-03-28T09:06:30.922Z,4.63
2023-03-28T09:09:23.690Z,5.38
2023-03-28T09:12:27.705Z,6.30
2023-03-28T09:15:35.683Z,5.45
2023-03-28T09:18:38.815Z,3.80
2023-03-28T09:21:20.142Z,4.20
2023-03-28T09:24:24.246Z,4.72
2023-03-28T09:27:13.787Z,5.03
2023-03-28T09:29:46.347Z,5.82
2023-03-28T09:32:27.574Z,5.63
2023-03-28T09:34:57.278Z,7.13
2023-03-28T09:37:33.492Z,6.47
2023-03-28T09:40:17.916Z,7.57
2023-03-28T09:43:19.032Z,9.38
2023-03-28T09:46:08.653Z,10.02
2023-03-28T09:48:58.545Z,10.10
2023-03-28T09:51:33.245Z,10.57
2023-03-28T09:54:07.768Z,11.32
2023-03-28T09:56:42.111Z,10.60
2023-03-28T09:59:36.529Z,10.95
2023-03-28T10:02:29.834Z,10.63
2023-03-28T10:05:05.566Z,10.20
2023-03-28T10:07:59.640Z,9.85
2023-03-28T10:10:36.279Z,10.45
2023-03-28T10:13:11.804Z,10.02
2023-03-28T10:15:48.123Z,9.07
2023-03-28T10:18:35.931Z,9.15
2023-03-28T10:21:33.566Z,7.88
2023-03-28T10:24:17.627Z,7.90
2023-03-28T10:26:59.920Z,7.25
2023-03-28T10:34:29.029Z,6.28
2023-03-28T10:37:27.489Z,5.10
2023-03-28T10:40:29.975Z,5.78
2023-03-28T10:43:37.927Z,5.40
2023-03-28T10:46:23.536Z,4.90
2023-03-28T10:49:14.157Z,5.20
2023-03-28T10:51:46.893Z,4.95
2023-03-28T10:54:34.763Z,4.80
2023-03-28T10:57:16.959Z,4.55
2023-03-28T10:59:53.843Z,4.93
2023-03-28T11:02:47.879Z,3.95
2023-03-28T11:05:38.592Z,5.30
2023-03-28T11:08:40.659Z,4.90
2023-03-28T11:11:37.765Z,5.25
2023-03-28T11:14:23.436Z,3.97
2023-03-28T11:17:03.915Z,6.88
2023-03-28T11:20:30.362Z,4.00
2023-03-28T11:23:38.079Z,3.97
2023-03-28T11:26:55.692Z,3.22
2023-03-28T11:29:44.001Z,3.70
2023-03-28T11:32:25.495Z,2.60
2023-03-28T11:35:08.197Z,4.32
2023-03-28T11:37:46.186Z,3.10
2023-03-28T11:40:29.267Z,3.28
2023-03-28T11:43:07.509Z,4.10
2023-03-28T11:45:52.121Z,3.88
2023-03-28T11:48:32.011Z,5.60
2023-03-28T11:51:12.838Z,3.50
2023-03-28T11:54:02.598Z,3.97
2023-03-28T11:56:53.698Z,4.28
2023-03-28T11:59:48.034Z,3.28
2023-03-28T12:02:41.028Z,2.88
2023-03-28T12:05:24.509Z,3.90
2023-03-28T12:08:05.559Z,3.13
2023-03-28T12:10:38.381Z,2.60
2023-03-28T12:13:27.084Z,3.75
2023-03-28T12:16:08.718Z,3.00
2023-03-28T12:18:45.055Z,2.47
2023-03-28T12:21:34.406Z,2.90
2023-03-28T12:24:14.759Z,2.58
2023-03-28T12:27:07.774Z,2.50
2023-03-28T12:29:47.126Z,2.40
2023-03-28T12:32:38.970Z,4.00
2023-03-28T12:35:22.473Z,4.45
2023-03-28T12:38:12.257Z,4.32
2023-03-28T12:40:56.120Z,4.97
2023-03-28T12:43:42.634Z,6.75
2023-03-28T12:46:19.548Z,2.47
2023-03-28T12:48:57.818Z,2.83
2023-03-28T12:51:38.867Z,3.00
2023-03-28T12:54:24.178Z,1.95
2023-03-28T12:57:06.226Z,2.35
2023-03-28T13:00:13.583Z,3.08
2023-03-28T13:03:28.008Z,2.70
2023-03-28T13:06:10.543Z,4.70
2023-03-28T13:09:05.750Z,3.40
2023-03-28T13:11:50.194Z,2.25
2023-03-28T13:14:38.608Z,2.03
2023-03-28T13:17:22.685Z,2.67
2023-03-28T13:19:55.851Z,6.25
2023-03-28T13:22:32.941Z,2.65
2023-03-28T13:25:32.626Z,3.53
2023-03-28T13:28:23.260Z,3.10
2023-03-28T13:31:09.005Z,3.78
2023-03-28T13:33:42.229Z,2.55
2023-03-28T13:36:30.779Z,2.38
2023-03-28T13:39:22.655Z,3.70
2023-03-28T13:42:01.385Z,2.20
2023-03-28T13:44:41.535Z,2.50
2023-03-28T13:47:22.932Z,2.80
2023-03-28T13:49:59.738Z,2.70
2023-03-28T13:52:29.861Z,2.00
2023-03-28T13:55:04.142Z,2.30
2023-03-28T13:57:33.074Z,2.50
2023-03-28T14:00:07.978Z,1.90
2023-03-28T14:02:47.064Z,2.00
2023-03-28T14:05:23.844Z,2.40
2023-03-28T14:07:56.818Z,2.40
2023-03-28T14:10:32.613Z,2.45
2023-03-28T14:13:06.407Z,3.00
2023-03-28T14:15:39.853Z,3.38
2023-03-28T14:18:17.262Z,2.38
2023-03-28T14:20:47.616Z,2.70
2023-03-28T14:23:31.249Z,3.17
2023-03-28T14:26:02.714Z,2.83
2023-03-28T14:28:32.782Z,2.55
2023-03-28T14:31:02.601Z,2.25
2023-03-28T14:33:37.695Z,2.20
2023-03-28T14:36:10.922Z,2.78
2023-03-28T14:38:41.188Z,2.40
2023-03-28T14:41:19.306Z,2.67
2023-03-28T14:43:53.506Z,2.95
2023-03-28T14:46:26.174Z,2.72
2023-03-28T14:48:59.013Z,2.53
2023-03-28T14:51:29.146Z,2.60
2023-03-28T14:53:59.232Z,3.60
2023-03-28T14:56:29.852Z,3.67
2023-03-28T14:59:05.577Z,3.22
2023-03-28T15:01:35.538Z,3.20
2023-03-28T15:08:38.305Z,2.45
2023-03-28T15:11:15.580Z,2.60
2023-03-28T15:18:25.278Z,2.42
2023-03-28T15:20:58.221Z,2.33
2023-03-28T15:23:31.782Z,2.17
2023-03-28T15:26:06.367Z,2.15
2023-03-28T15:28:37.613Z,2.63
2023-03-28T15:31:08.380Z,2.47
2023-03-28T15:33:37.631Z,2.97
2023-03-28T15:36:13.399Z,2.85
2023-03-28T15:43:41.429Z,2.40
2023-03-28T15:46:14.482Z,3.08
2023-03-28T15:48:44.118Z,2.97
2023-03-28T15:51:18.423Z,2.67
2023-03-28T15:53:50.191Z,2.63
2023-03-28T15:56:26.905Z,2.53
2023-03-28T15:59:03.979Z,2.50
2023-03-28T16:01:34.660Z,2.92
2023-03-28T16:04:23.833Z,2.85
2023-03-28T16:06:58.571Z,2.90
2023-03-28T16:09:27.626Z,3.38
2023-03-28T16:12:01.209Z,3.17
2023-03-28T16:14:52.163Z,3.90
2023-03-28T16:17:32.980Z,3.70
2023-03-28T16:20:17.276Z,3.88
2023-03-28T16:22:47.319Z,5.03
2023-03-28T16:25:16.964Z,7.00
2023-03-28T16:27:45.885Z,6.07
2023-03-28T16:30:26.541Z,4.70
2023-03-28T16:32:55.952Z,4.00
2023-03-28T16:35:27.153Z,4.03
2023-03-28T16:37:56.801Z,5.53
2023-03-28T16:40:26.076Z,5.17
2023-03-28T16:42:55.162Z,4.80
2023-03-28T16:45:25.616Z,6.45
2023-03-28T16:47:54.910Z,4.90
2023-03-28T16:50:23.998Z,5.13
2023-03-28T16:57:25.716Z,7.63
2023-03-28T16:59:54.528Z,6.60
2023-03-28T17:02:25.133Z,4.80
2023-03-28T17:04:54.029Z,4.67
2023-03-28T17:07:23.414Z,3.97
2023-03-28T17:09:52.431Z,3.67
2023-03-28T17:12:23.934Z,3.60
2023-03-28T17:14:52.722Z,4.87
2023-03-28T17:17:21.772Z,4.20
2023-03-28T17:19:51.873Z,4.15
2023-03-28T17:22:21.050Z,4.60
2023-03-28T17:24:50.910Z,4.17
2023-03-28T17:27:21.250Z,3.13
2023-03-28T17:29:50.061Z,3.07
2023-03-28T17:32:19.137Z,2.30
2023-03-28T17:34:49.078Z,2.47
2023-03-28T17:37:20.439Z,2.58
2023-03-28T17:39:49.534Z,3.17
2023-03-28T17:42:18.409Z,3.20
2023-03-28T17:44:48.567Z,3.33
2023-03-28T17:47:17.435Z,3.30
2023-03-28T17:49:46.582Z,4.13
2023-03-28T17:52:15.467Z,4.60
2023-03-28T17:54:46.009Z,4.00
2023-03-28T17:57:14.943Z,4.43
2023-03-28T17:59:44.630Z,4.90
2023-03-28T18:02:13.643Z,5.35
2023-03-28T18:04:44.871Z,4.80
2023-03-28T18:07:25.141Z,4.53
2023-03-28T18:09:55.924Z,4.97
2023-03-28T18:12:24.777Z,4.60
2023-03-28T18:14:53.803Z,5.57
2023-03-28T18:17:22.983Z,5.25
2023-03-28T18:19:52.164Z,4.60
2023-03-28T18:22:21.047Z,5.67
2023-03-28T18:24:50.058Z,6.10
2023-03-28T18:27:20.158Z,5.83
2023-03-28T18:29:49.375Z,5.60
2023-03-28T18:32:18.135Z,5.80
2023-03-28T18:34:48.132Z,5.45
2023-03-28T18:37:17.216Z,6.50
2023-03-28T18:39:46.333Z,6.05
2023-03-28T18:42:15.095Z,6.00
2023-03-28T18:44:45.674Z,5.53
2023-03-28T18:47:14.582Z,5.50
2023-03-28T18:49:43.625Z,5.30
2023-03-28T18:52:12.404Z,5.30
2023-03-28T18:54:45.839Z,6.50
2023-03-28T18:57:15.041Z,6.80
2023-03-28T18:59:45.609Z,6.63
2023-03-28T19:02:15.350Z,7.10
2023-03-28T19:04:44.518Z,5.97
2023-03-28T19:07:14.542Z,6.47
2023-03-28T19:09:44.053Z,5.77
2023-03-28T19:12:13.564Z,6.07
2023-03-28T19:14:42.616Z,6.30
2023-03-28T19:17:12.805Z,5.90
2023-03-28T19:19:41.656Z,5.60
2023-03-28T19:22:11.287Z,5.45
2023-03-28T19:24:40.161Z,5.17
2023-03-28T19:27:09.217Z,5.10
2023-03-28T19:29:37.916Z,4.60
2023-03-28T19:32:07.332Z,5.40
2023-03-28T19:34:37.404Z,5.17
2023-03-28T19:37:06.932Z,5.00
2023-03-28T19:39:35.685Z,6.03
2023-03-28T19:42:04.959Z,6.82
2023-03-28T19:49:07.017Z,7.17
2023-03-28T19:51:37.190Z,6.30
2023-03-28T19:54:06.572Z,5.60
2023-03-28T19:56:35.736Z,5.95
2023-03-28T19:59:04.757Z,5.97
2023-03-28T20:01:33.505Z,6.45
2023-03-28T20:04:02.524Z,5.68
2023-03-28T20:06:31.330Z,6.28
2023-03-28T20:13:32.922Z,6.23
2023-03-28T20:16:03.935Z,6.55
2023-03-28T20:18:33.910Z,5.50
2023-03-28T20:21:05.649Z,5.57
2023-03-28T20:23:35.635Z,5.53
2023-03-28T20:26:18.780Z,6.15
2023-03-28T20:28:56.384Z,6.30
2023-03-28T20:31:25.251Z,5.97
2023-03-28T20:33:55.416Z,4.88
2023-03-28T20:36:24.822Z,4.88
2023-03-28T20:38:55.015Z,4.68
2023-03-28T20:41:24.186Z,4.50
2023-03-28T20:43:55.330Z,4.22
2023-03-28T20:46:25.149Z,4.40
2023-03-28T20:48:56.954Z,4.78
2023-03-28T20:51:29.240Z,4.45
2023-03-28T20:54:01.003Z,5.05
2023-03-28T20:56:32.678Z,4.20
2023-03-28T20:59:04.448Z,4.78
2023-03-28T21:01:33.650Z,4.20
2023-03-28T21:04:02.836Z,4.38
2023-03-28T21:06:35.297Z,4.38
2023-03-28T21:09:07.708Z,4.30
2023-03-28T21:11:39.864Z,4.15
2023-03-28T21:14:14.239Z,4.03
2023-03-28T21:16:43.504Z,4.63
2023-03-28T21:19:12.753Z,4.70
2023-03-28T21:21:41.627Z,4.75
2023-03-28T21:24:10.659Z,4.35
2023-03-28T21:26:39.424Z,4.07
2023-03-28T21:29:10.800Z,3.58
2023-03-28T21:31:39.672Z,3.97
2023-03-28T21:34:09.031Z,3.55
2023-03-28T21:36:37.810Z,3.80
2023-03-28T21:39:07.923Z,3.33
2023-03-28T21:41:38.118Z,3.40
2023-03-28T21:44:07.431Z,3.55
2023-03-28T21:46:37.506Z,4.03
2023-03-28T21:49:07.100Z,3.58
2023-03-28T21:51:36.037Z,3.47
2023-03-28T21:54:06.543Z,3.42
2023-03-28T21:56:35.414Z,3.78
2023-03-28T21:59:04.506Z,3.83
2023-03-28T22:01:33.257Z,3.72
2023-03-28T22:08:36.069Z,3.70
2023-03-28T22:11:14.469Z,4.07
2023-03-28T22:13:45.391Z,3.78
2023-03-28T22:16:15.530Z,4.00
2023-03-28T22:18:49.796Z,3.17
2023-03-28T22:21:19.022Z,3.78
2023-03-28T22:23:49.351Z,3.78
2023-03-28T22:26:18.416Z,4.03
2023-03-28T22:28:49.129Z,3.80
2023-03-28T22:31:17.930Z,3.60
2023-03-28T22:33:47.168Z,4.10
2023-03-28T22:36:15.960Z,3.60
2023-03-28T22:38:45.390Z,3.85
2023-03-28T22:41:15.809Z,3.88
2023-03-28T22:43:45.105Z,5.07
2023-03-28T22:46:16.469Z,4.80
2023-03-28T22:48:45.701Z,4.95
2023-03-28T22:51:15.887Z,4.22
2023-03-28T22:53:45.388Z,4.57
2023-03-28T22:56:16.123Z,4.40
2023-03-28T22:58:45.155Z,4.18
2023-03-28T23:01:14.274Z,4.65
2023-03-28T23:03:43.342Z,4.13
2023-03-28T23:06:13.280Z,4.87
2023-03-28T23:08:42.504Z,4.65
2023-03-28T23:11:11.250Z,5.13
2023-03-28T23:13:41.793Z,5.43
2023-03-28T23:16:11.060Z,5.03
2023-03-28T23:18:40.079Z,5.45
2023-03-28T23:21:09.023Z,5.45
2023-03-28T23:23:38.986Z,5.28
2023-03-28T23:26:08.242Z,5.05
2023-03-28T23:28:37.224Z,5.43
2023-03-28T23:31:08.038Z,5.90
2023-03-28T23:33:37.138Z,5.60
2023-03-28T23:36:07.825Z,6.20
2023-03-28T23:38:36.910Z,5.43
2023-03-28T23:41:06.606Z,5.78
2023-03-28T23:43:35.714Z,5.47
2023-03-28T23:46:06.527Z,5.75
2023-03-28T23:48:36.227Z,5.40
2023-03-28T23:51:05.426Z,5.70
2023-03-28T23:53:34.582Z,5.73
2023-03-28T23:56:03.892Z,5.57
2023-03-28T23:58:32.984Z,5.60
